FZAA/FIH METAR and TAF weather

Enter ICAO airport designator
Station Type Date Time Source
FZAA METAR 2018/04/18 05:00 UTC NOAA

FZAA 180500Z 00000KT 8000 FEW018 25/23 Q1013 NOSIG


Station Type Date Time Source
FZAA Decoded METAR 2018/04/18 05:00 UTC NOAA

Kinshasa / N'Djili, Congo, Democratic Republic of the (FZAA) 04-23S 015-26E 312M
Apr 18, 2018 - 01:00 AM EDT / 2018.04.18 0500 UTC
Wind: Calm:0
Visibility: 4 mile(s):0
Sky conditions: mostly clear
Temperature: 77 F (25 C)
Dew Point: 73 F (23 C)
Relative Humidity: 88%
Pressure (altimeter): 29.91 in. Hg (1013 hPa)
ob: FZAA 180500Z 00000KT 8000 FEW018 25/23 Q1013 NOSIG
cycle: 5

Station Type Date Time Source
FZAA TAF 2018/04/19 12:39 UTC NOAA

TAF TAF FZAA 191100Z 1912/2018 32010KT 7000 SCT020
BECMG 1912/1914 FEW024 FEW030CB PROB30
TEMPO 1918/1922 TS
BECMG 1923/2001 2004KT SCT014


Example: see airport list